This is the latest recevied weather packets stored in our database for station/object EA4HRG-10. If no packets are shown the sender has not sent any weather packets the latest 10 day(s).
| Time | Temp. | Humidity | Pressure | Rain* | Wind** | Luminosity | Snow |
|---|---|---|---|---|---|---|---|
| 1777264159 | 5.56° C | 100% | 1024 hPa | - | - | - | - |
| 1777263259 | 5.56° C | 100% | 1023.8 hPa | - | - | - | - |
| 1777262359 | 6.11° C | 100% | 1023.7 hPa | - | - | - | - |
| 1777261459 | 6.11° C | 100% | 1023.8 hPa | - | - | - | - |
| 1777260559 | 6.11° C | 100% | 1023.9 hPa | - | - | - | - |
| 1777259659 | 6.67° C | 100% | 1023.7 hPa | - | - | - | - |
| 1777258759 | 6.67° C | 100% | 1023.7 hPa | - | - | - | - |
| 1777257859 | 7.22° C | 100% | 1023.5 hPa | - | - | - | - |
| 1777256966 | 7.22° C | 100% | 1023.6 hPa | - | - | - | - |
| 1777256059 | 7.78° C | 99% | 1023.5 hPa | - | - | - | - |
| 1777255159 | 7.78° C | 96% | 1023.5 hPa | - | - | - | - |
| 1777254259 | 7.78° C | 95% | 1023.3 hPa | - | - | - | - |
| 1777253359 | 8.33° C | 89% | 1023.1 hPa | - | - | - | - |
| 1777252459 | 8.33° C | 90% | 1023.2 hPa | - | - | - | - |
| 1777251559 | 8.89° C | 87% | 1023.3 hPa | - | - | - | - |
| 1777250659 | 9.44° C | 81% | 1023.2 hPa | - | - | - | - |
| 1777249759 | 10° C | 81% | 1023.1 hPa | - | - | - | - |
| 1777248859 | 10° C | 78% | 1023.2 hPa | - | - | - | - |
| 1777247959 | 10.56° C | 77% | 1023.2 hPa | - | - | - | - |
| 1777247059 | 10.56° C | 74% | 1023.2 hPa | - | - | - | - |
| 1777246159 | 11.11° C | 70% | 1023.1 hPa | - | - | - | - |
| 1777244359 | 11.67° C | 67% | 1022.6 hPa | - | - | - | - |
| 1777243459 | 12.22° C | 62% | 1022.4 hPa | - | - | - | - |
| 1777242559 | 13.33° C | 61% | 1022.2 hPa | - | - | - | - |
| 1777241659 | 13.89° C | 56% | 1022 hPa | - | - | - | - |
* Rain since midnight (hover to see other rain measurements)
** Current wind speed in m/s (hover to see current wind gust speed)